createdAt,value
2019-01-16T00:01:20.321Z,28.75
2019-01-16T00:04:02.034Z,28.05
2019-01-16T00:07:02.817Z,27.90
2019-01-16T00:09:39.352Z,28.37
2019-01-16T00:12:19.097Z,27.40
2019-01-16T00:15:06.409Z,27.87
2019-01-16T00:17:53.242Z,27.90
2019-01-16T00:20:40.501Z,27.40
2019-01-16T00:23:34.877Z,28.50
2019-01-16T00:26:22.110Z,27.15
2019-01-16T00:29:03.847Z,28.02
2019-01-16T00:31:44.630Z,28.12
2019-01-16T00:34:48.167Z,28.32
2019-01-16T00:37:35.361Z,28.67
2019-01-16T00:40:29.027Z,28.85
2019-01-16T00:43:11.721Z,29.87
2019-01-16T00:45:51.912Z,29.48
2019-01-16T00:48:40.028Z,30.92
2019-01-16T00:51:24.689Z,30.40
2019-01-16T00:54:10.983Z,31.25
2019-01-16T00:56:56.367Z,30.20
2019-01-16T00:59:39.078Z,30.12
2019-01-16T01:02:25.742Z,29.40
2019-01-16T01:05:05.733Z,30.55
2019-01-16T01:07:43.649Z,28.62
2019-01-16T01:10:27.064Z,28.75
2019-01-16T01:13:03.438Z,28.32
2019-01-16T01:15:40.518Z,28.97
2019-01-16T01:18:32.262Z,27.87
2019-01-16T01:21:17.096Z,27.40
2019-01-16T01:24:04.430Z,27.00
2019-01-16T01:26:44.079Z,26.30
2019-01-16T01:29:29.863Z,25.32
2019-01-16T01:32:10.536Z,26.80
2019-01-16T01:37:45.935Z,26.73
2019-01-16T01:40:24.817Z,24.30
2019-01-16T01:43:06.510Z,26.73
2019-01-16T01:45:49.328Z,23.55
2019-01-16T01:48:40.136Z,23.45
2019-01-16T01:51:23.873Z,23.70
2019-01-16T01:54:02.995Z,23.55
2019-01-16T01:56:53.095Z,24.45
2019-01-16T01:59:37.864Z,24.47
2019-01-16T02:02:21.081Z,22.97
2019-01-16T02:04:59.898Z,24.00
2019-01-16T02:08:00.668Z,24.80
2019-01-16T02:10:45.906Z,24.00
2019-01-16T02:13:43.741Z,24.85
2019-01-16T02:16:41.441Z,25.88
2019-01-16T02:19:30.435Z,25.90
2019-01-16T02:22:13.335Z,25.40
2019-01-16T02:24:59.372Z,25.95
2019-01-16T02:27:47.914Z,25.00
2019-01-16T02:30:43.076Z,24.77
2019-01-16T02:33:30.548Z,25.00
2019-01-16T02:36:22.344Z,23.97
2019-01-16T02:39:04.962Z,25.12
2019-01-16T02:42:03.333Z,23.75
2019-01-16T02:44:50.144Z,25.20
2019-01-16T02:47:28.976Z,25.25
2019-01-16T02:50:16.583Z,24.32
2019-01-16T02:52:55.937Z,23.62
2019-01-16T02:55:34.555Z,24.92
2019-01-16T02:58:26.251Z,24.18
2019-01-16T03:01:12.163Z,25.50
2019-01-16T03:03:59.330Z,24.90
2019-01-16T03:06:35.846Z,24.00
2019-01-16T03:09:31.783Z,24.82
2019-01-16T03:12:19.306Z,25.57
2019-01-16T03:15:09.193Z,26.55
2019-01-16T03:18:15.960Z,26.60
2019-01-16T03:21:04.854Z,25.27
2019-01-16T03:23:44.165Z,25.50
2019-01-16T03:26:41.551Z,26.33
2019-01-16T03:29:36.310Z,25.93
2019-01-16T03:32:23.484Z,26.10
2019-01-16T03:35:01.254Z,26.80
2019-01-16T03:37:52.836Z,28.30
2019-01-16T03:40:53.774Z,26.97
2019-01-16T03:43:57.513Z,27.10
2019-01-16T03:46:45.146Z,27.77
2019-01-16T03:49:42.837Z,28.83
2019-01-16T03:52:34.553Z,27.35
2019-01-16T03:55:21.156Z,26.60
2019-01-16T03:57:58.521Z,26.90
2019-01-16T04:00:44.009Z,27.70
2019-01-16T04:03:32.553Z,26.05
2019-01-16T04:06:14.865Z,26.40
2019-01-16T04:09:06.221Z,25.70
2019-01-16T04:11:53.365Z,25.97
2019-01-16T04:14:33.973Z,25.57
2019-01-16T04:17:21.906Z,25.77
2019-01-16T04:20:19.609Z,25.10
2019-01-16T04:23:04.747Z,25.50
2019-01-16T04:25:47.359Z,25.10
2019-01-16T04:28:21.279Z,24.02
2019-01-16T04:31:08.518Z,24.53
2019-01-16T04:34:00.147Z,24.85
2019-01-16T04:36:51.759Z,23.80
2019-01-16T04:39:46.271Z,23.92
2019-01-16T04:42:29.459Z,23.67
2019-01-16T04:45:27.385Z,24.05
2019-01-16T04:48:08.803Z,24.67
2019-01-16T04:50:57.403Z,27.30
2019-01-16T04:53:48.810Z,26.17
2019-01-16T04:56:36.072Z,26.93
2019-01-16T04:59:30.698Z,24.90
2019-01-16T05:02:22.040Z,24.90
2019-01-16T05:05:05.773Z,26.17
2019-01-16T05:07:53.020Z,25.33
2019-01-16T05:10:41.578Z,25.12
2019-01-16T05:13:43.191Z,25.68
2019-01-16T05:16:43.936Z,24.53
2019-01-16T05:19:40.570Z,24.92
2019-01-16T05:22:28.016Z,24.70
2019-01-16T05:25:16.657Z,25.08
2019-01-16T05:27:59.157Z,25.10
2019-01-16T05:30:46.684Z,23.60
2019-01-16T05:33:22.130Z,24.02
2019-01-16T05:36:07.514Z,23.70
2019-01-16T05:38:54.695Z,23.65
2019-01-16T05:41:53.000Z,23.47
2019-01-16T05:44:40.604Z,23.30
2019-01-16T05:47:29.823Z,23.50
2019-01-16T05:50:24.221Z,23.33
2019-01-16T05:53:03.307Z,23.90
2019-01-16T05:55:45.430Z,23.77
2019-01-16T05:58:44.162Z,23.20
2019-01-16T06:01:40.039Z,23.00
2019-01-16T06:04:28.576Z,23.22
2019-01-16T06:07:15.905Z,22.70
2019-01-16T06:10:03.241Z,22.97
2019-01-16T06:12:53.523Z,22.15
2019-01-16T06:15:42.090Z,21.33
2019-01-16T06:18:31.024Z,21.77
2019-01-16T06:21:17.534Z,21.93
2019-01-16T06:23:58.915Z,23.27
2019-01-16T06:26:40.310Z,22.53
2019-01-16T06:29:27.875Z,22.77
2019-01-16T06:32:31.718Z,22.80
2019-01-16T06:35:18.564Z,22.90
2019-01-16T06:38:07.099Z,22.32
2019-01-16T06:41:14.050Z,23.13
2019-01-16T06:43:58.746Z,22.20
2019-01-16T06:46:36.663Z,22.87
2019-01-16T06:49:16.701Z,22.45
2019-01-16T06:52:02.624Z,22.50
2019-01-16T06:54:49.816Z,22.13
2019-01-16T06:57:50.474Z,21.65
2019-01-16T07:00:38.658Z,21.10
2019-01-16T07:03:26.053Z,20.68
2019-01-16T07:06:13.724Z,20.50
2019-01-16T07:09:04.941Z,20.17
2019-01-16T07:11:53.486Z,20.10
2019-01-16T07:14:32.643Z,17.70
2019-01-16T07:17:20.049Z,18.15
2019-01-16T07:20:09.834Z,18.12
2019-01-16T07:23:07.848Z,17.30
2019-01-16T07:25:55.313Z,17.40
2019-01-16T07:28:42.756Z,17.20
2019-01-16T07:31:42.278Z,19.48
2019-01-16T07:34:35.704Z,18.32
2019-01-16T07:37:36.569Z,18.52
2019-01-16T07:40:21.062Z,18.40
2019-01-16T07:43:01.725Z,16.77
2019-01-16T07:45:50.336Z,18.07
2019-01-16T07:48:44.868Z,17.45
2019-01-16T07:51:32.711Z,17.10
2019-01-16T07:54:27.225Z,18.70
2019-01-16T07:57:08.058Z,18.17
2019-01-16T08:00:08.599Z,17.70
2019-01-16T08:03:04.720Z,16.95
2019-01-16T08:06:04.232Z,18.17
2019-01-16T08:08:52.849Z,17.92
2019-01-16T08:11:46.542Z,17.25
2019-01-16T08:14:41.223Z,17.85
2019-01-16T08:17:21.037Z,18.95
2019-01-16T08:20:12.455Z,20.08
2019-01-16T08:22:59.673Z,20.35
2019-01-16T08:25:39.689Z,21.07
2019-01-16T08:28:27.288Z,21.90
2019-01-16T08:31:02.239Z,21.73
2019-01-16T08:33:43.735Z,23.50
2019-01-16T08:36:32.416Z,23.20
2019-01-16T08:39:13.160Z,22.98
2019-01-16T08:41:52.893Z,23.90
2019-01-16T08:44:41.440Z,23.55
2019-01-16T08:47:24.481Z,24.57
2019-01-16T08:50:11.917Z,22.50
2019-01-16T08:53:01.377Z,23.92
2019-01-16T08:55:44.911Z,24.30
2019-01-16T08:58:28.378Z,22.70
2019-01-16T09:01:19.556Z,22.42
2019-01-16T09:04:00.534Z,21.30
2019-01-16T09:06:47.821Z,21.90
2019-01-16T09:09:33.029Z,22.65
2019-01-16T09:12:20.275Z,20.90
2019-01-16T09:15:18.139Z,20.97
2019-01-16T09:17:55.912Z,22.10
2019-01-16T09:20:40.006Z,21.85
2019-01-16T09:23:37.111Z,20.10
2019-01-16T09:26:17.071Z,18.90
2019-01-16T09:28:59.281Z,19.67
2019-01-16T09:31:46.983Z,18.57
2019-01-16T09:34:42.514Z,17.32
2019-01-16T09:37:26.857Z,15.60
2019-01-16T09:40:05.694Z,15.93
2019-01-16T09:42:53.040Z,14.95
2019-01-16T09:45:32.761Z,15.72
2019-01-16T09:48:21.287Z,14.78
2019-01-16T09:51:22.009Z,13.70
2019-01-16T09:54:05.281Z,13.55
2019-01-16T09:56:58.443Z,14.40
2019-01-16T09:59:48.937Z,12.10
2019-01-16T10:02:39.322Z,11.18
2019-01-16T10:05:28.600Z,12.18
2019-01-16T10:08:05.782Z,11.28
2019-01-16T10:11:03.449Z,10.88
2019-01-16T10:13:41.242Z,10.55
2019-01-16T10:16:23.755Z,9.88
2019-01-16T10:19:18.341Z,9.40
2019-01-16T10:22:03.124Z,8.38
2019-01-16T10:24:54.339Z,8.90
2019-01-16T10:27:42.773Z,8.73
2019-01-16T10:30:34.032Z,8.25
2019-01-16T10:33:21.186Z,8.20
2019-01-16T10:36:15.982Z,7.70
2019-01-16T10:39:05.602Z,7.30
2019-01-16T10:42:06.183Z,8.05
2019-01-16T10:45:01.000Z,7.60
2019-01-16T10:47:39.344Z,7.80
2019-01-16T10:50:28.081Z,6.95
2019-01-16T10:53:09.291Z,7.10
2019-01-16T10:56:00.908Z,7.12
2019-01-16T10:58:58.619Z,6.63
2019-01-16T11:01:48.144Z,7.43
2019-01-16T11:04:39.245Z,6.80
2019-01-16T11:07:26.951Z,7.10
2019-01-16T11:10:27.721Z,6.40
2019-01-16T11:13:27.345Z,6.30
2019-01-16T11:16:18.728Z,7.20
2019-01-16T11:19:16.212Z,7.12
2019-01-16T11:22:13.898Z,6.70
2019-01-16T11:24:59.404Z,6.20
2019-01-16T11:28:03.185Z,6.20
2019-01-16T11:30:51.710Z,6.90
2019-01-16T11:33:49.634Z,6.50
2019-01-16T11:36:37.263Z,5.80
2019-01-16T11:39:26.128Z,6.00
2019-01-16T11:42:13.599Z,6.33
2019-01-16T11:45:01.072Z,6.20
2019-01-16T11:47:55.143Z,6.45
2019-01-16T11:50:32.279Z,6.00
2019-01-16T11:53:22.691Z,7.03
2019-01-16T11:56:20.169Z,6.37
2019-01-16T11:59:00.706Z,6.43
2019-01-16T12:01:48.001Z,6.63
2019-01-16T12:04:27.472Z,6.67
2019-01-16T12:07:28.283Z,6.50
2019-01-16T12:10:19.827Z,6.70
2019-01-16T12:12:55.790Z,6.53
2019-01-16T12:15:34.051Z,5.47
2019-01-16T12:18:22.560Z,6.00
2019-01-16T12:21:13.078Z,5.90
2019-01-16T12:24:00.395Z,5.60
2019-01-16T12:26:48.043Z,6.00
2019-01-16T12:29:27.351Z,5.60
2019-01-16T12:32:15.169Z,6.17
2019-01-16T12:35:03.717Z,6.10
2019-01-16T12:37:52.248Z,6.80
2019-01-16T12:40:40.786Z,8.00
2019-01-16T12:43:28.100Z,6.92
2019-01-16T12:46:25.878Z,8.00
2019-01-16T12:49:14.370Z,8.80
2019-01-16T12:51:53.487Z,9.30
2019-01-16T12:54:42.040Z,9.45
2019-01-16T12:57:29.299Z,10.70
2019-01-16T13:00:27.759Z,11.30
2019-01-16T13:03:14.270Z,12.02
2019-01-16T13:05:56.149Z,12.10
2019-01-16T13:08:39.893Z,12.35
2019-01-16T13:11:33.968Z,12.93
2019-01-16T13:14:22.542Z,13.70
2019-01-16T13:17:23.255Z,13.40
2019-01-16T13:20:11.067Z,13.62
2019-01-16T13:23:02.685Z,13.88
2019-01-16T13:25:52.603Z,14.90
2019-01-16T13:28:40.135Z,15.40
2019-01-16T13:31:37.676Z,13.88
2019-01-16T13:34:22.071Z,14.38
2019-01-16T13:37:04.962Z,15.08
2019-01-16T13:39:53.556Z,14.50
2019-01-16T13:42:47.941Z,15.10
2019-01-16T13:45:30.945Z,14.47
2019-01-16T13:48:29.116Z,14.43
2019-01-16T13:51:08.877Z,14.07
2019-01-16T13:54:12.549Z,14.05
2019-01-16T13:57:10.135Z,12.97
2019-01-16T13:59:57.416Z,13.72
2019-01-16T14:02:45.377Z,14.07
2019-01-16T14:05:22.776Z,14.00
2019-01-16T14:08:10.019Z,12.87
2019-01-16T14:10:46.257Z,11.50
2019-01-16T14:13:33.801Z,12.13
2019-01-16T14:16:21.570Z,12.43
2019-01-16T14:19:10.136Z,12.70
2019-01-16T14:21:57.491Z,13.10
2019-01-16T14:24:42.150Z,13.17
2019-01-16T14:27:21.591Z,14.36
2019-01-16T14:30:16.209Z,13.57
2019-01-16T14:33:10.986Z,14.10
2019-01-16T14:35:51.480Z,14.33
2019-01-16T14:38:34.459Z,13.37
2019-01-16T14:41:31.141Z,13.65
2019-01-16T14:44:17.593Z,13.20
2019-01-16T14:47:05.102Z,12.47
2019-01-16T14:49:49.289Z,12.97
2019-01-16T14:52:36.607Z,12.70
2019-01-16T14:55:26.310Z,12.82
2019-01-16T14:58:22.928Z,13.07
2019-01-16T15:01:14.637Z,12.50
2019-01-16T15:03:57.775Z,13.30
2019-01-16T15:06:49.173Z,12.63
2019-01-16T15:09:56.231Z,11.13
2019-01-16T15:12:42.587Z,11.20
2019-01-16T15:15:31.158Z,12.00
2019-01-16T15:18:18.694Z,12.13
2019-01-16T15:21:07.290Z,11.63
2019-01-16T15:23:51.057Z,11.20
2019-01-16T15:26:37.664Z,11.37
2019-01-16T15:29:31.641Z,12.00
2019-01-16T15:32:33.079Z,11.10
2019-01-16T15:35:14.486Z,11.47
2019-01-16T15:38:18.429Z,11.57
2019-01-16T15:41:06.020Z,11.30
2019-01-16T15:43:46.802Z,12.10
2019-01-16T15:46:38.221Z,11.20
2019-01-16T15:49:25.756Z,11.70
2019-01-16T15:52:18.370Z,11.78
2019-01-16T15:55:07.554Z,11.60
2019-01-16T15:58:01.735Z,10.63
2019-01-16T16:00:49.469Z,11.62
2019-01-16T16:03:56.403Z,12.33
2019-01-16T16:06:53.918Z,12.70
2019-01-16T16:09:45.119Z,12.37
2019-01-16T16:12:27.230Z,11.90
2019-01-16T16:15:13.830Z,11.40
2019-01-16T16:18:01.507Z,13.00
2019-01-16T16:21:01.072Z,11.12
2019-01-16T16:23:41.538Z,11.97
2019-01-16T16:26:35.925Z,13.07
2019-01-16T16:29:30.727Z,12.13
2019-01-16T16:32:07.503Z,12.63
2019-01-16T16:35:00.247Z,12.77
2019-01-16T16:37:47.904Z,13.40
2019-01-16T16:40:37.840Z,13.28
2019-01-16T16:43:36.033Z,13.90
2019-01-16T16:46:18.234Z,13.67
2019-01-16T16:49:06.798Z,12.85
2019-01-16T16:52:05.503Z,13.18
2019-01-16T16:54:53.080Z,13.15
2019-01-16T16:57:39.362Z,13.70
2019-01-16T17:00:28.428Z,13.50
2019-01-16T17:03:14.366Z,12.98
2019-01-16T17:06:00.579Z,13.50
2019-01-16T17:08:49.163Z,13.30
2019-01-16T17:11:46.670Z,13.27
2019-01-16T17:14:34.382Z,12.90
2019-01-16T17:17:14.554Z,14.10
2019-01-16T17:20:03.423Z,13.30
2019-01-16T17:22:50.892Z,12.93
2019-01-16T17:25:40.542Z,11.60
2019-01-16T17:28:35.034Z,13.10
2019-01-16T17:31:20.391Z,13.80
2019-01-16T17:34:13.763Z,12.90
2019-01-16T17:37:01.493Z,12.13
2019-01-16T17:39:58.958Z,12.20
2019-01-16T17:42:46.498Z,11.57
2019-01-16T17:45:34.083Z,12.23
2019-01-16T17:48:25.057Z,10.80
2019-01-16T17:51:25.961Z,11.03
2019-01-16T17:54:13.261Z,11.40
2019-01-16T17:57:00.758Z,10.75
2019-01-16T18:00:03.477Z,10.30
2019-01-16T18:02:44.060Z,10.90
2019-01-16T18:05:32.204Z,11.05
2019-01-16T18:08:20.984Z,11.10
2019-01-16T18:11:10.214Z,11.15
2019-01-16T18:13:49.459Z,10.53
2019-01-16T18:16:44.758Z,10.13
2019-01-16T18:19:32.276Z,10.30
2019-01-16T18:22:12.552Z,10.83
2019-01-16T18:24:59.893Z,10.45
2019-01-16T18:27:47.118Z,10.13
2019-01-16T18:30:49.586Z,10.00
2019-01-16T18:33:32.380Z,10.23
2019-01-16T18:36:08.368Z,10.47
2019-01-16T18:38:48.494Z,9.30
2019-01-16T18:41:26.096Z,9.43
2019-01-16T18:44:18.124Z,9.33
2019-01-16T18:47:05.380Z,10.50
2019-01-16T18:49:53.936Z,8.85
2019-01-16T18:52:38.490Z,9.43
2019-01-16T18:55:45.858Z,8.90
2019-01-16T18:58:31.030Z,9.00
2019-01-16T19:01:18.962Z,8.70
2019-01-16T19:04:03.838Z,8.90
2019-01-16T19:06:48.997Z,8.03
2019-01-16T19:09:42.048Z,7.90
2019-01-16T19:12:40.540Z,8.87
2019-01-16T19:15:29.039Z,8.50
2019-01-16T19:18:06.911Z,8.90
2019-01-16T19:20:50.232Z,8.80
2019-01-16T19:23:31.606Z,8.93
2019-01-16T19:26:23.642Z,8.70
2019-01-16T19:29:14.759Z,8.20
2019-01-16T19:32:00.053Z,9.23
2019-01-16T19:34:51.471Z,7.80
2019-01-16T19:37:46.172Z,8.00
2019-01-16T19:40:29.058Z,7.80
2019-01-16T19:43:16.350Z,7.43
2019-01-16T19:45:57.988Z,7.93
2019-01-16T19:48:59.428Z,7.80
2019-01-16T19:51:39.073Z,7.27
2019-01-16T19:54:27.723Z,6.97
2019-01-16T19:57:05.876Z,6.60
2019-01-16T20:00:01.850Z,6.78
2019-01-16T20:02:49.548Z,6.22
2019-01-16T20:05:41.087Z,6.10
2019-01-16T20:08:31.700Z,6.33
2019-01-16T20:11:19.280Z,6.50
2019-01-16T20:14:01.567Z,6.70
2019-01-16T20:16:48.970Z,6.50
2019-01-16T20:19:46.944Z,6.78
2019-01-16T20:22:34.272Z,6.93
2019-01-16T20:25:17.246Z,6.47
2019-01-16T20:28:04.846Z,6.65
2019-01-16T20:30:49.367Z,7.27
2019-01-16T20:33:44.088Z,6.90
2019-01-16T20:36:35.482Z,6.85
2019-01-16T20:39:29.447Z,6.50
2019-01-16T20:42:21.234Z,6.53
2019-01-16T20:45:08.316Z,7.30
2019-01-16T20:47:59.675Z,6.80
2019-01-16T20:50:48.280Z,6.83
2019-01-16T20:53:24.231Z,7.10
2019-01-16T20:56:03.985Z,7.30
2019-01-16T20:58:52.347Z,7.80
2019-01-16T21:01:47.004Z,7.37
2019-01-16T21:04:42.059Z,7.40
2019-01-16T21:07:23.198Z,8.00
2019-01-16T21:10:00.508Z,8.07
2019-01-16T21:12:41.005Z,7.40
2019-01-16T21:15:28.793Z,7.50
2019-01-16T21:18:16.409Z,7.80
2019-01-16T21:21:21.395Z,7.58
2019-01-16T21:24:10.961Z,8.75
2019-01-16T21:26:51.513Z,8.00
2019-01-16T21:29:39.082Z,8.60
2019-01-16T21:32:26.439Z,8.40
2019-01-16T21:35:23.091Z,8.60
2019-01-16T21:38:10.517Z,8.73
2019-01-16T21:40:56.805Z,8.33
2019-01-16T21:43:48.267Z,8.78
2019-01-16T21:46:36.579Z,8.48
2019-01-16T21:49:23.988Z,8.20
2019-01-16T21:52:12.244Z,9.13
2019-01-16T21:54:59.885Z,8.43
2019-01-16T21:57:36.958Z,9.00
2019-01-16T22:00:27.718Z,9.43
2019-01-16T22:03:05.899Z,8.80
2019-01-16T22:05:54.596Z,9.48
2019-01-16T22:08:43.277Z,8.80
2019-01-16T22:11:27.738Z,8.30
2019-01-16T22:14:18.032Z,8.73
2019-01-16T22:17:05.690Z,9.00
2019-01-16T22:19:46.225Z,8.25
2019-01-16T22:22:33.843Z,9.00
2019-01-16T22:25:31.315Z,8.80
2019-01-16T22:28:22.949Z,9.40
2019-01-16T22:31:26.609Z,8.90
2019-01-16T22:34:06.191Z,9.10
2019-01-16T22:36:53.412Z,7.90
2019-01-16T22:39:41.939Z,8.60
2019-01-16T22:42:29.279Z,8.33
2019-01-16T22:45:17.804Z,8.38
2019-01-16T22:48:02.285Z,8.53
2019-01-16T22:50:50.633Z,8.30
2019-01-16T22:53:43.322Z,9.00
2019-01-16T22:56:37.889Z,9.03
2019-01-16T22:59:16.711Z,9.28
2019-01-16T23:01:58.592Z,7.90
2019-01-16T23:04:46.120Z,9.30
2019-01-16T23:07:29.345Z,9.90
2019-01-16T23:10:09.922Z,10.25
2019-01-16T23:12:57.377Z,10.20
2019-01-16T23:15:38.322Z,10.20
2019-01-16T23:18:25.861Z,11.68
2019-01-16T23:21:13.324Z,11.68
2019-01-16T23:23:49.865Z,11.93
2019-01-16T23:26:37.634Z,12.33
2019-01-16T23:29:15.573Z,13.20
2019-01-16T23:32:03.226Z,13.30
2019-01-16T23:34:50.663Z,14.25
2019-01-16T23:37:28.837Z,15.18
2019-01-16T23:40:07.978Z,15.00
2019-01-16T23:42:55.411Z,15.63
2019-01-16T23:45:41.601Z,14.53
2019-01-16T23:48:21.236Z,15.55
2019-01-16T23:51:01.417Z,16.57
2019-01-16T23:53:47.686Z,16.35
2019-01-16T23:56:35.633Z,15.72
2019-01-16T23:59:27.076Z,15.68
